Los Olivos, California
Current Conditions -  °F | °C
As of 12:35 PM on Friday 28 Nov 2014 (Local Time) from KIZA Reporting Station
Clear Clear  
Wind Chill: 79°   Ceiling: Unl
Heat Index: 79°   Visibility: 10mi
Dew Point: 30°   Wind: 12mph
Humidity: 17%   Direction: 310°NW
Pressure: 29.95"   Gusts: NA
Location:  34.67°N, 120.12°W
Report Text: KIZA 282035Z AUTO 31010KT 10SM CLR 26/M01 A2995 RMK AO2
Loading
Personal Weather Stations






























Interactive Weather Map New forecast layout! Learn more

10-Day Weather Forecast

Advertisements
Track Severe Weather on mobile